Time;durP1;ratioP1;P1;durP2;ratioP2;P2;SDS_P1;SDS_P2;PMS_P1;PMS_P2;Temp;Humidity;BMP_temperature;BMP_pressure;BME280_temperature;BME280_humidity;BME280_pressure;Samples;Min_cycle;Max_cycle;Signal;HPM_P1;HPM_P2
2022/04/22 00:00:01;;;;;;;3.95;2.50;;;20.70;59.60;;;;;;5021529;27;92234;-81
2022/04/22 00:02:26;;;;;;;3.22;2.53;;;20.70;59.80;;;;;;5019049;28;93050;-81
2022/04/22 00:04:52;;;;;;;3.10;1.90;;;20.80;59.70;;;;;;5025732;28;92683;-81
2022/04/22 00:07:18;;;;;;;4.32;2.25;;;20.70;59.70;;;;;;5023129;27;93238;-81
2022/04/22 00:09:44;;;;;;;2.80;2.20;;;20.70;59.70;;;;;;5025610;28;92043;-81
2022/04/22 00:12:10;;;;;;;3.22;2.38;;;20.70;59.60;;;;;;5021096;28;93208;-81
2022/04/22 00:14:35;;;;;;;2.88;2.13;;;20.70;59.60;;;;;;5023948;28;92810;-82
2022/04/22 00:17:01;;;;;;;2.97;2.40;;;20.70;59.70;;;;;;5022140;28;93397;-81
2022/04/22 00:19:27;;;;;;;4.50;2.40;;;20.70;59.60;;;;;;5023974;28;92852;-81
2022/04/22 00:21:53;;;;;;;3.70;2.60;;;20.70;59.60;;;;;;5022923;28;93080;-81
2022/04/22 00:24:19;;;;;;;4.32;2.67;;;20.70;59.50;;;;;;5022308;28;92158;-81
2022/04/22 00:26:44;;;;;;;3.70;2.15;;;20.70;59.60;;;;;;5020871;28;92096;-81
2022/04/22 00:29:11;;;;;;;4.40;2.50;;;20.70;59.70;;;;;;5025975;28;91940;-82
2022/04/22 00:31:37;;;;;;;3.63;2.42;;;20.70;59.80;;;;;;5022471;28;93749;-81
2022/04/22 00:34:02;;;;;;;4.22;2.45;;;20.70;59.70;;;;;;5025279;28;94464;-82
2022/04/22 00:36:28;;;;;;;3.08;2.05;;;20.70;59.70;;;;;;5020664;28;92444;-82
2022/04/22 00:38:53;;;;;;;3.33;1.90;;;20.70;59.40;;;;;;5018538;28;92598;-82
2022/04/22 00:41:26;;;;;;;3.30;2.15;;;20.60;59.50;;;;;;5022700;28;92884;-81
2022/04/22 00:43:53;;;;;;;4.07;2.28;;;20.70;59.30;;;;;;5021940;28;92606;-81
2022/04/22 00:46:19;;;;;;;3.78;2.38;;;20.60;59.50;;;;;;5021703;28;92330;-81
2022/04/22 00:48:45;;;;;;;2.67;2.30;;;20.60;59.50;;;;;;5026502;28;92295;-82
2022/04/22 00:51:12;;;;;;;3.45;2.33;;;20.60;59.50;;;;;;5024592;28;92375;-81
2022/04/22 00:53:40;;;;;;;3.40;2.40;;;20.60;59.60;;;;;;5022020;28;92995;-82
2022/04/22 00:56:07;;;;;;;5.28;2.03;;;20.60;59.70;;;;;;5022383;28;93052;-81
2022/04/22 00:58:36;;;;;;;2.35;1.90;;;20.60;59.50;;;;;;5024878;28;92178;-80
2022/04/22 01:01:02;;;;;;;2.80;2.00;;;20.60;59.60;;;;;;5023751;28;93136;-81
2022/04/22 01:03:28;;;;;;;2.25;1.90;;;20.60;59.60;;;;;;5021926;27;92846;-81
2022/04/22 01:11:32;;;;;;;2.17;1.77;;;20.60;59.50;;;;;;5024002;28;92200;-81
2022/04/22 01:14:00;;;;;;;3.30;2.20;;;20.60;60.20;;;;;;5020705;28;93812;-81
2022/04/22 01:16:26;;;;;;;3.05;2.20;;;20.60;59.60;;;;;;5018042;28;92874;-82
2022/04/22 01:18:52;;;;;;;2.53;2.03;;;20.60;60.40;;;;;;5022430;28;92747;-81
2022/04/22 01:21:18;;;;;;;3.60;2.30;;;20.60;59.80;;;;;;5017179;28;94128;-81
2022/04/22 01:23:44;;;;;;;2.70;2.08;;;20.60;59.60;;;;;;5020058;28;96579;-81
2022/04/22 01:26:10;;;;;;;2.97;2.08;;;20.60;59.80;;;;;;5022168;28;92131;-81
2022/04/22 01:28:37;;;;;;;2.95;2.03;;;20.60;59.80;;;;;;5024371;28;93306;-82
2022/04/22 01:31:03;;;;;;;4.03;2.28;;;20.60;59.60;;;;;;5021278;28;96655;-82
2022/04/22 01:33:28;;;;;;;3.60;2.20;;;20.50;59.60;;;;;;5023088;28;92640;-81
2022/04/22 01:36:03;;;;;;;2.22;1.85;;;20.60;59.80;;;;;;5022358;28;92432;-82
2022/04/22 01:38:30;;;;;;;3.33;2.13;;;20.60;59.80;;;;;;5022863;28;91509;-81
2022/04/22 01:40:55;;;;;;;3.17;2.28;;;20.60;59.50;;;;;;5021530;28;95854;-81
2022/04/22 01:43:21;;;;;;;5.13;2.10;;;20.50;59.50;;;;;;5022585;27;92585;-82
2022/04/22 01:45:47;;;;;;;2.85;2.13;;;20.50;59.70;;;;;;5025011;28;93650;-81
2022/04/22 01:48:13;;;;;;;2.75;2.25;;;20.60;59.60;;;;;;5022078;28;92468;-80
2022/04/22 01:50:38;;;;;;;4.10;2.30;;;20.50;59.50;;;;;;5013609;28;92727;-81
2022/04/22 01:53:06;;;;;;;2.60;2.10;;;20.50;59.60;;;;;;5019050;28;92780;-82
2022/04/22 01:55:35;;;;;;;3.67;2.30;;;20.50;59.60;;;;;;5022053;28;92452;-81
2022/04/22 01:58:01;;;;;;;3.50;2.13;;;20.50;59.40;;;;;;5024769;28;92850;-82
2022/04/22 02:03:02;;;;;;;3.40;2.13;;;20.50;59.40;;;;;;3128281;26;94256;-66
2022/04/22 02:05:28;;;;;;;3.08;2.22;;;20.50;59.30;;;;;;4978091;28;93045;-66
2022/04/22 02:07:53;;;;;;;3.22;2.28;;;20.50;59.40;;;;;;4980362;28;92287;-65
2022/04/22 02:10:19;;;;;;;2.70;1.92;;;20.60;59.60;;;;;;4977332;28;94554;-66
2022/04/22 02:12:45;;;;;;;3.53;1.95;;;20.50;59.40;;;;;;4977216;28;96377;-66
2022/04/22 02:15:11;;;;;;;2.78;1.98;;;20.50;59.50;;;;;;4980646;28;92640;-65
2022/04/22 02:17:37;;;;;;;6.30;2.17;;;20.50;59.60;;;;;;4971416;28;93109;-65
2022/04/22 02:20:04;;;;;;;6.43;2.80;;;20.50;59.90;;;;;;4973034;28;93265;-66
2022/04/22 02:22:30;;;;;;;6.22;3.10;;;20.50;60.00;;;;;;4982301;28;92559;-66
2022/04/22 02:24:57;;;;;;;8.27;2.97;;;20.50;60.00;;;;;;4971907;28;92970;-65
2022/04/22 02:30:07;;;;;;;4.47;3.40;;;20.50;59.80;;;;;;4970446;28;92899;-65
2022/04/22 02:32:33;;;;;;;4.38;3.17;;;20.50;59.90;;;;;;4971396;28;92814;-65
2022/04/22 02:34:58;;;;;;;4.97;2.88;;;20.50;59.90;;;;;;4965275;28;93678;-65
2022/04/22 02:37:25;;;;;;;5.97;3.00;;;20.50;59.90;;;;;;4977334;28;92771;-65
2022/04/22 02:39:51;;;;;;;4.20;2.83;;;20.50;60.00;;;;;;4973827;28;92348;-65
2022/04/22 02:47:45;;;;;;;4.20;2.75;;;20.50;60.90;;;;;;4972255;28;92926;-66
2022/04/22 02:50:10;;;;;;;4.82;2.80;;;20.50;60.10;;;;;;4971286;28;92607;-65
2022/04/22 02:52:36;;;;;;;5.63;2.72;;;20.50;59.90;;;;;;4972464;28;92808;-66
2022/04/22 02:55:02;;;;;;;5.10;2.63;;;20.50;60.00;;;;;;4972638;28;92409;-65
2022/04/22 02:57:27;;;;;;;5.03;2.80;;;20.50;60.10;;;;;;4974734;28;92467;-66
2022/04/22 02:59:53;;;;;;;4.88;3.33;;;20.50;60.20;;;;;;4972729;28;94109;-66
2022/04/22 03:02:19;;;;;;;4.55;2.80;;;20.50;60.20;;;;;;4969318;28;97337;-66
2022/04/22 03:04:45;;;;;;;3.53;2.55;;;20.40;60.10;;;;;;4972518;28;92719;-66
2022/04/22 03:07:10;;;;;;;4.13;3.08;;;20.40;60.20;;;;;;4972761;28;92686;-65
2022/04/22 03:09:36;;;;;;;3.90;2.90;;;20.50;60.30;;;;;;4975037;28;92807;-66
2022/04/22 03:12:02;;;;;;;3.35;2.45;;;20.50;60.40;;;;;;4974566;28;92710;-66
2022/04/22 03:14:29;;;;;;;4.10;2.58;;;20.40;60.30;;;;;;4976052;28;92983;-66
2022/04/22 03:16:55;;;;;;;6.30;3.00;;;20.50;60.30;;;;;;4976907;28;92238;-65
2022/04/22 03:19:20;;;;;;;3.47;2.92;;;20.40;60.10;;;;;;4976294;28;92650;-66
2022/04/22 03:21:46;;;;;;;3.90;2.90;;;20.50;60.10;;;;;;4970970;28;92956;-65
2022/04/22 03:24:11;;;;;;;5.70;2.65;;;20.50;60.30;;;;;;4970432;28;93929;-66
2022/04/22 03:26:37;;;;;;;4.30;2.60;;;20.40;56.80;;;;;;4966543;28;92955;-66
2022/04/22 03:29:03;;;;;;;4.65;2.58;;;20.40;56.10;;;;;;4974896;28;92035;-66
2022/04/22 03:31:28;;;;;;;3.78;2.40;;;20.40;56.50;;;;;;4976897;28;92860;-66
2022/04/22 03:33:56;;;;;;;5.35;2.67;;;20.40;56.50;;;;;;4969600;28;92768;-67
2022/04/22 03:36:22;;;;;;;5.38;2.33;;;20.40;56.90;;;;;;4969044;28;93028;-66
2022/04/22 03:38:48;;;;;;;5.32;2.10;;;20.40;57.10;;;;;;4984588;28;96642;-66
2022/04/22 03:41:14;;;;;;;3.45;2.20;;;20.40;57.20;;;;;;4977402;28;93802;-66
2022/04/22 03:43:41;;;;;;;5.50;2.65;;;20.40;57.10;;;;;;4982893;28;93080;-66
2022/04/22 03:46:06;;;;;;;4.18;2.33;;;20.40;57.30;;;;;;4975867;28;92217;-66
2022/04/22 03:48:32;;;;;;;3.83;2.78;;;20.40;57.40;;;;;;4976238;28;93976;-66
2022/04/22 03:50:57;;;;;;;3.30;2.50;;;20.40;57.70;;;;;;4977431;28;93239;-66
2022/04/22 03:53:23;;;;;;;5.18;2.63;;;20.40;57.80;;;;;;4970867;28;93107;-66
2022/04/22 03:55:49;;;;;;;4.55;2.80;;;20.40;57.80;;;;;;4982180;28;92001;-66
2022/04/22 03:58:17;;;;;;;2.53;2.33;;;20.40;57.80;;;;;;4977486;28;94011;-66
2022/04/22 04:00:48;;;;;;;3.72;2.78;;;20.40;58.10;;;;;;4981191;28;93527;-66
2022/04/22 04:03:16;;;;;;;5.38;2.90;;;20.40;58.10;;;;;;4977612;28;92016;-66
2022/04/22 04:05:49;;;;;;;4.57;2.88;;;20.30;57.70;;;;;;4976740;28;92194;-66
2022/04/22 04:08:19;;;;;;;3.20;2.47;;;20.40;57.80;;;;;;4969902;28;92826;-66
2022/04/22 04:16:15;;;;;;;3.97;2.85;;;20.30;57.80;;;;;;4976724;28;92639;-66
2022/04/22 04:18:41;;;;;;;4.25;2.60;;;20.30;58.10;;;;;;4977950;28;93275;-67
2022/04/22 04:23:54;;;;;;;3.30;2.65;;;20.30;58.00;;;;;;4976552;28;93021;-66
2022/04/22 04:26:24;;;;;;;2.92;2.20;;;20.30;57.80;;;;;;4981872;28;92901;-66
2022/04/22 04:28:51;;;;;;;4.82;2.85;;;20.30;57.60;;;;;;4981380;28;92693;-66
2022/04/22 04:31:17;;;;;;;2.63;2.30;;;20.30;57.70;;;;;;4976956;28;92409;-66
2022/04/22 04:33:43;;;;;;;4.20;2.58;;;20.30;57.70;;;;;;4984746;28;92626;-66
2022/04/22 04:36:10;;;;;;;3.30;2.40;;;20.30;57.60;;;;;;4982461;28;92694;-66
2022/04/22 04:38:37;;;;;;;3.00;2.40;;;20.30;57.80;;;;;;4980660;28;94121;-66
2022/04/22 04:41:04;;;;;;;5.80;2.45;;;20.30;57.60;;;;;;4975620;28;94323;-66
2022/04/22 04:43:31;;;;;;;4.25;2.30;;;20.30;57.80;;;;;;4976519;28;92896;-66
2022/04/22 04:45:56;;;;;;;4.00;2.47;;;20.30;57.70;;;;;;4968796;28;92784;-66
2022/04/22 04:48:22;;;;;;;4.50;2.40;;;20.30;57.80;;;;;;4975456;28;92961;-66
2022/04/22 04:50:49;;;;;;;3.90;2.17;;;20.30;57.70;;;;;;4975625;28;92775;-66
2022/04/22 04:53:15;;;;;;;4.05;2.40;;;20.30;57.60;;;;;;4975155;28;92842;-66
2022/04/22 04:55:41;;;;;;;3.90;2.47;;;20.20;57.40;;;;;;4981089;28;91626;-66
2022/04/22 04:58:07;;;;;;;4.03;2.45;;;20.30;57.60;;;;;;4976083;28;93315;-66
2022/04/22 05:00:33;;;;;;;3.70;2.38;;;20.20;57.50;;;;;;4977695;28;93261;-66
2022/04/22 05:02:59;;;;;;;5.28;2.50;;;20.20;57.40;;;;;;4975619;28;93686;-66
2022/04/22 05:05:25;;;;;;;2.50;2.10;;;20.30;57.60;;;;;;4974444;28;92683;-66
2022/04/22 05:07:55;;;;;;;3.45;2.40;;;20.30;57.30;;;;;;4971141;28;92594;-66
2022/04/22 05:10:21;;;;;;;3.30;2.10;;;20.30;57.20;;;;;;4975258;28;92920;-66
2022/04/22 05:12:50;;;;;;;2.92;2.00;;;20.30;57.40;;;;;;4975707;28;93213;-66
2022/04/22 05:15:17;;;;;;;3.70;2.40;;;20.30;57.00;;;;;;4979865;28;92359;-66
2022/04/22 05:17:43;;;;;;;3.58;2.53;;;20.30;57.00;;;;;;4973947;28;93110;-66
2022/04/22 05:20:13;;;;;;;3.92;2.40;;;20.30;57.00;;;;;;4976207;28;95912;-66
2022/04/22 05:22:40;;;;;;;3.92;2.53;;;20.30;56.90;;;;;;4974921;28;92822;-66
2022/04/22 05:25:08;;;;;;;6.57;2.78;;;20.30;57.10;;;;;;4976894;28;92662;-66
2022/04/22 05:27:34;;;;;;;4.85;2.17;;;20.30;56.90;;;;;;4973534;28;94048;-66
2022/04/22 05:32:48;;;;;;;4.05;2.13;;;20.20;56.80;;;;;;4974943;28;92315;-66
2022/04/22 05:35:20;;;;;;;4.43;2.30;;;20.20;56.80;;;;;;4981248;28;92967;-66
2022/04/22 05:37:51;;;;;;;2.55;2.10;;;20.30;56.90;;;;;;4972974;28;93402;-66
2022/04/22 05:40:21;;;;;;;6.05;2.38;;;20.30;56.90;;;;;;4979721;28;93364;-66
2022/04/22 05:42:49;;;;;;;3.83;2.28;;;20.30;56.90;;;;;;4973947;28;92588;-66
2022/04/22 05:45:19;;;;;;;3.15;2.25;;;20.30;56.70;;;;;;4973346;28;91131;-66
2022/04/22 05:47:45;;;;;;;3.85;2.13;;;20.30;56.80;;;;;;4976501;28;92535;-66
2022/04/22 05:50:12;;;;;;;4.65;2.58;;;20.30;56.70;;;;;;4973024;28;95839;-67
2022/04/22 05:52:38;;;;;;;5.90;2.17;;;20.30;56.60;;;;;;4993169;28;93621;-66
2022/04/22 05:55:09;;;;;;;3.42;2.00;;;20.40;56.50;;;;;;4974470;28;93090;-66
2022/04/22 05:57:36;;;;;;;2.92;1.92;;;20.30;56.60;;;;;;4978418;28;93222;-66
2022/04/22 06:00:07;;;;;;;5.80;2.42;;;20.30;56.40;;;;;;4971828;28;96989;-66
2022/04/22 06:02:34;;;;;;;2.55;2.35;;;20.40;56.50;;;;;;4978216;28;92498;-67
2022/04/22 06:04:59;;;;;;;4.22;2.47;;;20.40;56.50;;;;;;4970552;28;92209;-66
2022/04/22 06:07:25;;;;;;;4.97;2.22;;;20.40;56.50;;;;;;4974779;28;92885;-66
2022/04/22 06:12:35;;;;;;;2.47;1.98;;;20.40;56.50;;;;;;4971733;28;91955;-66
2022/04/22 06:15:02;;;;;;;2.92;2.00;;;20.40;56.50;;;;;;4976537;28;92471;-66
2022/04/22 06:17:28;;;;;;;5.47;2.15;;;20.40;56.30;;;;;;4976460;28;94222;-66
2022/04/22 06:19:54;;;;;;;3.33;1.90;;;20.40;56.40;;;;;;4973073;28;93194;-66
2022/04/22 06:22:20;;;;;;;3.75;2.08;;;20.40;56.40;;;;;;4974838;28;92890;-66
2022/04/22 06:24:45;;;;;;;5.38;2.40;;;20.50;56.50;;;;;;4971710;28;92565;-66
2022/04/22 06:27:11;;;;;;;2.67;2.00;;;20.50;57.50;;;;;;4973129;28;93132;-65
2022/04/22 06:29:37;;;;;;;2.92;2.10;;;20.50;57.50;;;;;;4977286;28;93456;-65
2022/04/22 06:32:04;;;;;;;3.05;2.00;;;20.50;57.60;;;;;;4974826;28;92966;-65
2022/04/22 06:34:30;;;;;;;8.75;2.70;;;20.50;57.60;;;;;;4974700;28;91689;-65
2022/04/22 06:36:56;;;;;;;4.90;2.47;;;20.50;58.00;;;;;;4974614;28;93294;-65
2022/04/22 06:39:22;;;;;;;3.15;2.58;;;20.50;58.20;;;;;;4974494;28;92691;-66
2022/04/22 06:47:16;;;;;;;5.57;2.30;;;20.50;58.30;;;;;;4967381;28;93544;-66
2022/04/22 06:49:45;;;;;;;9.75;2.50;;;20.60;58.20;;;;;;4974640;28;93012;-65
2022/04/22 06:52:13;;;;;;;6.15;3.45;;;20.60;58.10;;;;;;4979261;28;92314;-66
2022/04/22 06:54:39;;;;;;;12.93;5.15;;;20.60;58.30;;;;;;4973517;28;92883;-66
2022/04/22 06:57:05;;;;;;;8.68;5.43;;;20.60;56.80;;;;;;4983313;28;93826;-67
2022/04/22 06:59:31;;;;;;;11.30;5.07;;;20.50;55.80;;;;;;4977295;28;92251;-67
2022/04/22 07:01:58;;;;;;;11.52;5.15;;;20.50;56.10;;;;;;4984132;28;92946;-66
2022/04/22 07:04:24;;;;;;;10.18;4.85;;;20.50;55.50;;;;;;4987175;28;92680;-66
2022/04/22 07:06:51;;;;;;;7.93;4.47;;;20.60;56.30;;;;;;4983297;28;93817;-66
2022/04/22 07:09:17;;;;;;;11.05;4.90;;;20.60;56.00;;;;;;4977396;28;97940;-66
2022/04/22 07:11:45;;;;;;;9.60;5.25;;;20.60;55.80;;;;;;4980719;28;93242;-66
2022/04/22 07:14:11;;;;;;;13.70;5.95;;;20.60;55.60;;;;;;4982350;28;93117;-66
2022/04/22 07:16:44;;;;;;;9.30;5.38;;;20.60;55.80;;;;;;4978589;28;93160;-66
2022/04/22 07:19:10;;;;;;;9.35;5.05;;;20.60;55.60;;;;;;4980875;28;93585;-66
2022/04/22 07:21:36;;;;;;;8.30;5.40;;;20.60;55.20;;;;;;4978552;28;93136;-66
2022/04/22 07:24:03;;;;;;;7.07;4.68;;;20.60;54.80;;;;;;4982588;28;92153;-66
2022/04/22 07:26:32;;;;;;;10.27;5.43;;;20.60;54.90;;;;;;4976980;28;93160;-65
2022/04/22 07:29:08;;;;;;;8.95;4.30;;;20.60;55.00;;;;;;4974581;28;93337;-65
2022/04/22 07:31:34;;;;;;;7.82;4.05;;;20.60;55.10;;;;;;4967829;28;94849;-66
2022/04/22 07:34:00;;;;;;;9.65;4.53;;;20.60;55.40;;;;;;4976631;28;92554;-67
2022/04/22 07:36:26;;;;;;;6.95;4.88;;;20.60;55.60;;;;;;4982359;28;92641;-66
2022/04/22 07:38:52;;;;;;;7.03;4.13;;;20.60;55.80;;;;;;4972295;28;94553;-66
2022/04/22 07:41:19;;;;;;;7.55;4.43;;;20.60;55.70;;;;;;4953827;28;92653;-66
2022/04/22 07:46:49;;;;;;;5.63;4.32;;;20.60;55.90;;;;;;4974750;28;93257;-66
2022/04/22 07:49:23;;;;;;;7.07;3.95;;;20.70;56.20;;;;;;4973228;28;92460;-66
2022/04/22 07:51:49;;;;;;;6.18;4.20;;;20.60;56.30;;;;;;4971876;28;92749;-65
2022/04/22 07:54:15;;;;;;;5.53;3.85;;;20.60;56.50;;;;;;4973841;28;92892;-64
2022/04/22 07:56:44;;;;;;;5.28;4.28;;;20.60;56.50;;;;;;4977223;28;94643;-65
2022/04/22 07:59:10;;;;;;;6.73;4.00;;;20.60;56.70;;;;;;4973103;28;95129;-65
2022/04/22 08:01:36;;;;;;;4.50;3.55;;;20.70;56.90;;;;;;4982193;28;92449;-66
2022/04/22 08:04:03;;;;;;;5.90;3.72;;;20.70;57.00;;;;;;4975885;28;92895;-66
2022/04/22 08:06:29;;;;;;;6.55;3.50;;;20.70;57.00;;;;;;4977795;28;93536;-65
2022/04/22 08:08:57;;;;;;;8.85;4.00;;;20.70;57.00;;;;;;4978940;28;92868;-65
2022/04/22 08:11:22;;;;;;;6.70;3.55;;;20.70;57.00;;;;;;4978834;28;92936;-65
2022/04/22 08:13:48;;;;;;;5.70;3.60;;;20.70;57.20;;;;;;4974749;28;92022;-65
2022/04/22 08:16:14;;;;;;;4.25;3.40;;;20.70;57.50;;;;;;4974867;28;93140;-65
2022/04/22 08:18:39;;;;;;;7.85;4.10;;;20.70;57.60;;;;;;4972219;28;93135;-65
2022/04/22 08:21:07;;;;;;;4.40;3.40;;;20.70;57.70;;;;;;4974513;28;93912;-65
2022/04/22 08:23:32;;;;;;;5.47;3.83;;;20.70;57.50;;;;;;4976474;28;93137;-65
2022/04/22 08:25:58;;;;;;;6.28;3.47;;;20.70;57.70;;;;;;4978648;28;93256;-64
2022/04/22 08:28:24;;;;;;;6.75;3.80;;;20.70;57.70;;;;;;4974837;28;96051;-64
2022/04/22 08:30:49;;;;;;;6.78;3.33;;;20.70;57.60;;;;;;4968986;28;92628;-64
2022/04/22 08:33:16;;;;;;;7.60;4.28;;;20.70;57.60;;;;;;4978883;28;93382;-64
2022/04/22 08:35:42;;;;;;;6.38;3.65;;;20.70;57.60;;;;;;4976555;28;96047;-65
2022/04/22 08:38:08;;;;;;;30.85;7.57;;;20.70;57.70;;;;;;4973369;28;95968;-64
2022/04/22 08:40:37;;;;;;;54.85;11.93;;;20.70;57.60;;;;;;4975694;28;92229;-65
2022/04/22 08:43:03;;;;;;;55.45;11.73;;;20.80;57.50;;;;;;4975146;28;92554;-64
2022/04/22 08:45:29;;;;;;;50.67;11.32;;;20.70;57.50;;;;;;4977993;28;97505;-65
2022/04/22 08:50:42;;;;;;;55.80;13.50;;;20.70;59.70;;;;;;4984451;28;92011;-65
2022/04/22 08:53:11;;;;;;;53.72;13.35;;;20.70;58.40;;;;;;4973476;28;92997;-65
2022/04/22 08:55:39;;;;;;;54.88;13.00;;;20.70;58.20;;;;;;4972023;28;92770;-65
2022/04/22 08:58:05;;;;;;;49.92;12.98;;;20.70;58.50;;;;;;4977918;28;93927;-65
2022/04/22 09:00:41;;;;;;;50.55;12.85;;;20.70;58.60;;;;;;4972191;28;93440;-65
2022/04/22 09:03:09;;;;;;;41.05;11.13;;;20.70;56.60;;;;;;4983153;28;92096;-65
2022/04/22 09:05:35;;;;;;;43.85;12.65;;;20.70;58.20;;;;;;4971557;28;96529;-65
2022/04/22 09:08:01;;;;;;;48.65;12.90;;;20.70;60.70;;;;;;4974665;28;94921;-65
2022/04/22 09:10:27;;;;;;;48.67;12.20;;;20.70;59.50;;;;;;4973971;28;92897;-65
2022/04/22 09:12:55;;;;;;;53.17;13.05;;;20.70;58.70;;;;;;4974310;28;92660;-65
2022/04/22 09:15:22;;;;;;;39.53;11.70;;;20.70;58.60;;;;;;4978007;28;92799;-65
2022/04/22 09:17:48;;;;;;;44.63;11.95;;;20.70;58.70;;;;;;4976767;28;92950;-65
2022/04/22 09:20:15;;;;;;;39.17;11.65;;;20.70;58.80;;;;;;4973891;28;92992;-70
2022/04/22 09:22:41;;;;;;;48.33;12.52;;;20.70;59.10;;;;;;4980271;28;93021;-67
2022/04/22 09:25:06;;;;;;;32.40;11.73;;;20.70;61.20;;;;;;4981935;28;95633;-67
2022/04/22 09:27:35;;;;;;;43.88;13.40;;;20.70;59.70;;;;;;4977006;28;92977;-68
2022/04/22 09:30:03;;;;;;;41.45;13.70;;;20.70;59.40;;;;;;4978015;28;93673;-68
2022/04/22 09:32:33;;;;;;;47.50;12.52;;;20.70;59.60;;;;;;4977470;28;92650;-67
2022/04/22 09:35:10;;;;;;;40.63;12.05;;;20.80;59.70;;;;;;4975087;28;95508;-68
2022/04/22 09:43:25;;;;;;;58.27;13.83;;;20.70;58.50;;;;;;4978297;28;92917;-67
2022/04/22 09:45:53;;;;;;;34.88;12.65;;;20.80;59.90;;;;;;4980228;28;92314;-68
2022/04/22 09:48:20;;;;;;;34.53;12.23;;;20.80;59.90;;;;;;4968681;28;96273;-68
2022/04/22 09:50:46;;;;;;;39.10;12.15;;;20.80;58.70;;;;;;4971003;28;93103;-67
2022/04/22 09:53:14;;;;;;;37.50;12.13;;;20.80;59.80;;;;;;4978518;28;92517;-67
2022/04/22 09:55:53;;;;;;;35.10;12.57;;;20.80;59.90;;;;;;4969366;28;93248;-67
2022/04/22 09:58:26;;;;;;;34.17;11.77;;;20.70;59.80;;;;;;4973976;28;92791;-67
2022/04/22 10:01:01;;;;;;;34.38;11.98;;;20.80;59.70;;;;;;4983615;28;93548;-67
2022/04/22 10:03:29;;;;;;;36.92;12.38;;;20.70;60.00;;;;;;4973224;28;92507;-67
2022/04/22 10:05:58;;;;;;;33.50;11.38;;;20.70;60.40;;;;;;4969441;28;96421;-67
2022/04/22 10:08:24;;;;;;;33.50;12.55;;;20.70;60.80;;;;;;4972359;28;94758;-68
2022/04/22 10:10:55;;;;;;;28.20;11.73;;;20.70;60.70;;;;;;4982467;28;92331;-67
2022/04/22 10:13:24;;;;;;;29.58;11.68;;;20.70;61.20;;;;;;4980440;28;92656;-67
2022/04/22 10:15:50;;;;;;;34.75;11.30;;;20.70;61.00;;;;;;4977570;28;93167;-68
2022/04/22 10:18:16;;;;;;;35.50;12.18;;;20.70;60.80;;;;;;4973975;28;95370;-67
2022/04/22 10:20:44;;;;;;;33.35;11.30;;;20.70;61.10;;;;;;4977361;28;93024;-67
2022/04/22 10:23:10;;;;;;;30.70;11.50;;;20.70;61.20;;;;;;4975888;28;92568;-67
2022/04/22 10:25:36;;;;;;;36.70;12.10;;;20.70;61.20;;;;;;4976913;28;93665;-67
2022/04/22 10:28:06;;;;;;;35.95;11.95;;;20.70;61.50;;;;;;4980287;28;93321;-67
2022/04/22 10:30:32;;;;;;;30.13;11.65;;;20.70;61.60;;;;;;4975129;28;93035;-67
2022/04/22 10:32:59;;;;;;;37.78;12.82;;;20.70;62.50;;;;;;4974983;28;92597;-67
2022/04/22 10:35:26;;;;;;;32.08;11.88;;;20.70;73.20;;;;;;4977154;28;93354;-67
2022/04/22 10:37:55;;;;;;;41.75;14.73;;;20.80;77.90;;;;;;4971614;28;93278;-67
2022/04/22 10:40:23;;;;;;;39.72;12.88;;;20.80;81.30;;;;;;4978621;28;92771;-67
2022/04/22 10:42:55;;;;;;;33.58;13.40;;;20.80;81.10;;;;;;4971752;28;91355;-67
2022/04/22 10:48:21;;;;;;;28.35;12.70;;;20.80;79.30;;;;;;4971771;28;92883;-66
2022/04/22 10:50:59;;;;;;;25.60;12.43;;;20.70;71.50;;;;;;4978134;28;93782;-66
2022/04/22 10:53:27;;;;;;;21.13;11.95;;;20.60;66.90;;;;;;4977690;28;93082;-66
2022/04/22 10:56:22;;;;;;;18.35;11.45;;;20.60;61.70;;;;;;4970771;28;94661;-67
2022/04/22 10:58:48;;;;;;;16.77;10.45;;;20.50;58.80;;;;;;4967076;28;93035;-67
2022/04/22 11:01:29;;;;;;;16.23;10.07;;;20.40;56.50;;;;;;4973225;28;92207;-67
2022/04/22 11:03:56;;;;;;;16.10;10.70;;;20.40;56.50;;;;;;4978934;28;92011;-68
2022/04/22 11:06:22;;;;;;;18.27;10.63;;;20.40;56.20;;;;;;4969687;28;95824;-67
2022/04/22 11:08:59;;;;;;;13.00;9.57;;;20.40;55.80;;;;;;4979580;28;95529;-67
2022/04/22 11:11:25;;;;;;;14.50;10.15;;;20.40;55.50;;;;;;4972748;28;92368;-67
2022/04/22 11:13:52;;;;;;;17.17;10.40;;;20.40;54.50;;;;;;4970785;28;93143;-67
2022/04/22 11:16:28;;;;;;;15.35;9.45;;;20.40;56.40;;;;;;4965691;28;94604;-67
2022/04/22 11:19:09;;;;;;;17.77;9.60;;;20.40;55.70;;;;;;4976117;28;96736;-67
2022/04/22 11:21:40;;;;;;;15.73;9.27;;;20.50;57.20;;;;;;4978044;28;92742;-66
2022/04/22 11:24:22;;;;;;;15.65;9.45;;;20.50;57.20;;;;;;4966440;28;93440;-66
2022/04/22 11:26:49;;;;;;;15.52;9.20;;;20.50;57.80;;;;;;4978987;28;93097;-67
2022/04/22 11:29:16;;;;;;;12.32;7.18;;;20.50;57.70;;;;;;4964910;28;96585;-66
2022/04/22 11:32:10;;;;;;;8.45;6.03;;;20.50;59.00;;;;;;4971453;28;92267;-67
2022/04/22 11:35:14;;;;;;;15.70;8.10;;;20.60;58.40;;;;;;4963890;28;91813;-67
2022/04/22 11:37:40;;;;;;;16.83;9.05;;;20.60;57.30;;;;;;4950320;28;93007;-67
2022/04/22 11:40:08;;;;;;;15.45;8.00;;;20.60;58.00;;;;;;4977921;28;92533;-66
2022/04/22 11:42:43;;;;;;;9.70;6.28;;;20.60;58.00;;;;;;4969309;28;93805;-67
2022/04/22 11:45:14;;;;;;;12.00;6.00;;;20.60;58.80;;;;;;4983781;28;92833;-67
2022/04/22 11:47:41;;;;;;;14.15;7.30;;;20.60;59.30;;;;;;4973244;28;92960;-67
2022/04/22 11:50:07;;;;;;;19.58;7.68;;;20.60;59.10;;;;;;4974919;28;93100;-67
2022/04/22 11:52:33;;;;;;;19.63;7.78;;;20.60;59.10;;;;;;4979401;28;92943;-67
2022/04/22 11:55:06;;;;;;;17.50;8.02;;;20.70;59.30;;;;;;4972217;28;94254;-67
2022/04/22 11:57:37;;;;;;;14.60;7.80;;;20.60;58.20;;;;;;4979120;28;93262;-66
2022/04/22 12:05:36;;;;;;;23.33;9.50;;;20.70;58.00;;;;;;4978380;28;92203;-66
2022/04/22 12:08:07;;;;;;;24.73;10.18;;;20.80;57.80;;;;;;4983343;28;93916;-66
2022/04/22 12:10:34;;;;;;;25.95;9.93;;;20.80;58.40;;;;;;4985210;28;93823;-67
2022/04/22 12:13:04;;;;;;;28.92;11.10;;;20.70;58.80;;;;;;4980865;28;93042;-66
2022/04/22 12:15:31;;;;;;;24.75;10.00;;;20.70;58.90;;;;;;4979627;28;92585;-67
2022/04/22 12:17:57;;;;;;;29.45;9.25;;;20.70;59.10;;;;;;4974264;28;93245;-67
2022/04/22 12:20:25;;;;;;;35.72;10.23;;;20.80;58.80;;;;;;4984939;28;96121;-67
2022/04/22 12:22:53;;;;;;;29.45;10.07;;;20.80;58.80;;;;;;4974191;28;92513;-67
2022/04/22 12:25:20;;;;;;;28.90;9.85;;;20.70;58.80;;;;;;4978672;28;91615;-67
2022/04/22 12:28:09;;;;;;;21.58;10.02;;;20.70;58.80;;;;;;4977660;28;92622;-67
2022/04/22 12:30:36;;;;;;;25.98;9.85;;;20.70;58.80;;;;;;4975538;28;93710;-67
2022/04/22 12:33:02;;;;;;;23.30;9.60;;;20.70;58.80;;;;;;4975190;28;93756;-67
2022/04/22 12:35:28;;;;;;;23.23;10.05;;;20.70;58.80;;;;;;4971439;28;92625;-67
2022/04/22 12:37:56;;;;;;;24.00;9.35;;;20.70;58.90;;;;;;4975299;28;94200;-67
2022/04/22 12:40:22;;;;;;;19.30;9.65;;;20.70;58.80;;;;;;4974231;28;92865;-66
2022/04/22 12:42:52;;;;;;;21.90;9.43;;;20.70;58.80;;;;;;4973666;28;92682;-67
2022/04/22 12:54:04;;;;;;;24.58;9.02;;;20.70;59.00;;;;;;4970583;28;92567;-67
2022/04/22 12:56:29;;;;;;;20.95;9.65;;;20.70;59.20;;;;;;4974098;28;92583;-67
2022/04/22 12:59:00;;;;;;;14.70;8.30;;;20.70;58.80;;;;;;4978548;28;93986;-67
2022/04/22 13:01:27;;;;;;;23.00;9.88;;;20.70;59.10;;;;;;4973764;28;93700;-66
2022/04/22 13:03:54;;;;;;;18.02;9.38;;;20.70;59.00;;;;;;4973821;28;92855;-66
2022/04/22 13:06:56;;;;;;;22.10;9.05;;;20.70;59.10;;;;;;4972648;28;93233;-67
2022/04/22 13:09:22;;;;;;;21.60;8.95;;;20.70;59.20;;;;;;4924411;28;93342;-66
2022/04/22 13:11:51;;;;;;;21.05;9.05;;;20.70;59.00;;;;;;4970732;28;93238;-67
2022/04/22 13:14:17;;;;;;;19.73;8.67;;;20.70;59.10;;;;;;4982099;28;92822;-67
2022/04/22 13:16:43;;;;;;;20.38;8.80;;;20.70;59.10;;;;;;4980852;28;91767;-67
2022/04/22 13:19:09;;;;;;;16.35;8.15;;;20.70;59.00;;;;;;4970643;28;93266;-67
2022/04/22 13:21:40;;;;;;;22.65;8.43;;;20.70;59.10;;;;;;4974674;28;94521;-67
2022/04/22 13:24:06;;;;;;;15.73;7.85;;;20.70;59.00;;;;;;4982484;28;93661;-67
2022/04/22 13:26:31;;;;;;;17.52;8.52;;;20.70;59.10;;;;;;4984709;28;92521;-67
2022/04/22 13:28:57;;;;;;;16.77;8.40;;;20.70;59.00;;;;;;4983207;28;92913;-66
2022/04/22 13:31:26;;;;;;;22.98;9.23;;;20.70;59.20;;;;;;4975883;28;92836;-67
2022/04/22 13:33:52;;;;;;;18.57;8.13;;;20.70;59.20;;;;;;4977149;28;93536;-65
2022/04/22 13:36:17;;;;;;;20.42;8.07;;;20.80;59.20;;;;;;4981858;28;93557;-66
2022/04/22 13:38:48;;;;;;;18.33;7.80;;;20.80;59.20;;;;;;4978596;28;93225;-65
2022/04/22 13:41:14;;;;;;;17.95;6.47;;;20.80;59.80;;;;;;4981134;28;92873;-66
2022/04/22 13:43:40;;;;;;;19.30;7.10;;;20.90;59.50;;;;;;4970966;28;92424;-67
2022/04/22 13:54:19;;;;;;;24.58;8.57;;;21.00;59.40;;;;;;4974876;28;92629;-66